createdAt,value
2019-03-29T00:01:32.790Z,14.30
2019-03-29T00:04:02.394Z,12.33
2019-03-29T00:06:32.041Z,12.93
2019-03-29T00:09:02.078Z,12.43
2019-03-29T00:11:32.050Z,15.93
2019-03-29T00:14:01.752Z,14.17
2019-03-29T00:16:31.458Z,12.33
2019-03-29T00:19:01.346Z,13.87
2019-03-29T00:21:32.065Z,15.37
2019-03-29T00:24:06.931Z,14.70
2019-03-29T00:26:33.042Z,14.43
2019-03-29T00:29:03.230Z,17.17
2019-03-29T00:31:33.045Z,12.60
2019-03-29T00:34:02.652Z,15.33
2019-03-29T00:36:32.380Z,15.60
2019-03-29T00:39:01.995Z,16.40
2019-03-29T00:41:31.611Z,16.47
2019-03-29T00:44:01.309Z,16.30
2019-03-29T00:46:31.007Z,16.13
2019-03-29T00:49:00.619Z,17.60
2019-03-29T00:51:30.232Z,17.13
2019-03-29T00:53:59.847Z,17.77
2019-03-29T00:56:29.460Z,17.03
2019-03-29T00:58:59.132Z,18.10
2019-03-29T01:01:28.756Z,18.33
2019-03-29T01:03:58.368Z,19.33
2019-03-29T01:06:27.987Z,22.80
2019-03-29T01:08:57.634Z,21.17
2019-03-29T01:11:27.252Z,20.03
2019-03-29T01:13:56.799Z,21.93
2019-03-29T01:16:27.163Z,22.03
2019-03-29T01:18:57.559Z,19.20
2019-03-29T01:21:27.234Z,22.20
2019-03-29T01:23:56.840Z,22.27
2019-03-29T01:26:27.144Z,17.97
2019-03-29T01:28:56.861Z,23.03
2019-03-29T01:31:26.490Z,19.30
2019-03-29T01:33:56.386Z,21.20
2019-03-29T01:36:26.032Z,21.67
2019-03-29T01:38:55.652Z,20.43
2019-03-29T01:41:25.284Z,22.87
2019-03-29T01:43:54.962Z,21.40
2019-03-29T01:46:24.604Z,22.80
2019-03-29T01:48:54.225Z,24.50
2019-03-29T01:51:23.875Z,22.37
2019-03-29T01:53:53.482Z,22.10
2019-03-29T01:56:23.126Z,22.60
2019-03-29T01:58:52.721Z,24.00
2019-03-29T02:01:22.347Z,20.90
2019-03-29T02:03:51.945Z,21.17
2019-03-29T02:06:21.588Z,22.67
2019-03-29T02:08:51.182Z,21.33
2019-03-29T02:11:20.838Z,23.27
2019-03-29T02:13:51.253Z,21.17
2019-03-29T02:16:21.567Z,19.73
2019-03-29T02:18:51.232Z,21.73
2019-03-29T02:21:20.869Z,23.03
2019-03-29T02:23:50.473Z,22.77
2019-03-29T02:26:20.107Z,23.07
2019-03-29T02:28:49.737Z,23.53
2019-03-29T02:31:19.370Z,22.87
2019-03-29T02:33:48.990Z,23.03
2019-03-29T02:36:18.629Z,21.77
2019-03-29T02:38:55.542Z,22.60
2019-03-29T02:41:19.711Z,25.13
2019-03-29T02:43:49.518Z,28.30
2019-03-29T02:46:19.152Z,24.60
2019-03-29T02:48:48.791Z,25.47
2019-03-29T02:51:18.483Z,25.83
2019-03-29T02:53:48.101Z,23.83
2019-03-29T02:56:17.732Z,27.67
2019-03-29T02:58:47.396Z,24.60
2019-03-29T03:01:17.041Z,24.80
2019-03-29T03:03:46.669Z,26.90
2019-03-29T03:06:16.300Z,26.73
2019-03-29T03:08:45.925Z,24.80
2019-03-29T03:11:15.570Z,24.53
2019-03-29T03:13:45.176Z,22.80
2019-03-29T03:16:14.783Z,26.33
2019-03-29T03:18:44.408Z,24.67
2019-03-29T03:21:14.124Z,23.77
2019-03-29T03:23:43.739Z,26.43
2019-03-29T03:26:13.352Z,24.17
2019-03-29T03:28:42.974Z,23.77
2019-03-29T03:31:12.692Z,24.37
2019-03-29T03:33:42.340Z,26.53
2019-03-29T03:36:12.101Z,26.17
2019-03-29T03:38:41.760Z,23.47
2019-03-29T03:41:11.364Z,27.03
2019-03-29T03:43:40.985Z,23.70
2019-03-29T03:46:10.580Z,25.33
2019-03-29T03:48:40.276Z,24.37
2019-03-29T03:51:09.898Z,25.90
2019-03-29T03:53:39.650Z,24.03
2019-03-29T03:56:10.742Z,22.53
2019-03-29T03:58:41.039Z,28.73
2019-03-29T04:01:10.655Z,26.33
2019-03-29T04:03:40.278Z,23.00
2019-03-29T04:06:09.876Z,24.73
2019-03-29T04:08:39.503Z,25.57
2019-03-29T04:11:09.130Z,23.40
2019-03-29T04:13:38.768Z,24.30
2019-03-29T04:16:08.408Z,23.63
2019-03-29T04:18:38.027Z,25.40
2019-03-29T04:21:07.636Z,26.83
2019-03-29T04:23:37.282Z,28.30
2019-03-29T04:26:06.900Z,22.47
2019-03-29T04:28:36.567Z,23.50
2019-03-29T04:31:06.201Z,24.03
2019-03-29T04:33:35.919Z,25.57
2019-03-29T04:36:05.750Z,24.23
2019-03-29T04:38:35.558Z,23.03
2019-03-29T04:41:05.626Z,23.63
2019-03-29T04:43:35.258Z,28.17
2019-03-29T04:46:04.887Z,24.40
2019-03-29T04:48:34.469Z,24.00
2019-03-29T04:51:04.095Z,23.80
2019-03-29T04:53:33.749Z,25.30
2019-03-29T04:56:03.383Z,24.00
2019-03-29T04:58:33.046Z,25.33
2019-03-29T05:01:02.665Z,26.10
2019-03-29T05:03:32.307Z,22.90
2019-03-29T05:06:01.988Z,22.97
2019-03-29T05:08:31.644Z,25.30
2019-03-29T05:11:01.273Z,23.40
2019-03-29T05:13:30.901Z,24.60
2019-03-29T05:16:00.523Z,23.23
2019-03-29T05:18:30.161Z,22.87
2019-03-29T05:20:59.801Z,24.70
2019-03-29T05:23:29.425Z,23.50
2019-03-29T05:25:59.065Z,23.83
2019-03-29T05:28:28.719Z,28.20
2019-03-29T05:30:58.335Z,24.63
2019-03-29T05:33:27.971Z,22.33
2019-03-29T05:35:57.586Z,29.97
2019-03-29T05:38:27.243Z,24.87
2019-03-29T05:40:56.861Z,23.13
2019-03-29T05:43:26.611Z,26.00
2019-03-29T05:45:56.231Z,26.47
2019-03-29T05:48:25.933Z,25.07
2019-03-29T05:50:55.563Z,25.80
2019-03-29T05:53:25.133Z,25.63
2019-03-29T05:55:54.788Z,28.33
2019-03-29T05:58:24.477Z,27.80
2019-03-29T06:00:54.225Z,28.57
2019-03-29T06:03:23.887Z,26.20
2019-03-29T06:05:53.541Z,24.10
2019-03-29T06:08:23.165Z,23.57
2019-03-29T06:10:52.867Z,36.00
2019-03-29T06:13:22.517Z,129.77
2019-03-29T06:15:52.216Z,26.93
2019-03-29T06:18:21.872Z,26.13
2019-03-29T06:20:51.516Z,27.87
2019-03-29T06:23:21.197Z,23.67
2019-03-29T06:25:50.916Z,26.63
2019-03-29T06:28:20.560Z,23.03
2019-03-29T06:30:50.199Z,21.57
2019-03-29T06:33:19.810Z,24.67
2019-03-29T06:35:51.945Z,25.63
2019-03-29T06:38:24.738Z,26.67
2019-03-29T06:41:02.834Z,23.77
2019-03-29T06:43:25.753Z,26.63
2019-03-29T06:45:55.382Z,26.30
2019-03-29T06:48:25.025Z,23.87
2019-03-29T06:50:54.684Z,22.03
2019-03-29T06:53:24.309Z,19.27
2019-03-29T06:55:53.851Z,23.37
2019-03-29T06:58:23.519Z,20.17
2019-03-29T07:00:53.160Z,24.43
2019-03-29T07:03:22.798Z,20.17
2019-03-29T07:05:52.431Z,25.57
2019-03-29T07:08:22.024Z,22.77
2019-03-29T07:10:51.678Z,21.80
2019-03-29T07:13:21.297Z,25.83
2019-03-29T07:15:51.014Z,20.20
2019-03-29T07:18:20.922Z,19.03
2019-03-29T07:20:50.502Z,21.63
2019-03-29T07:23:20.102Z,20.97
2019-03-29T07:25:50.132Z,20.33
2019-03-29T07:28:19.766Z,19.40
2019-03-29T07:30:49.390Z,18.40
2019-03-29T07:33:18.996Z,20.50
2019-03-29T07:35:48.642Z,20.17
2019-03-29T07:38:18.272Z,19.47
2019-03-29T07:40:47.880Z,18.23
2019-03-29T07:43:17.484Z,19.13
2019-03-29T07:45:47.100Z,18.07
2019-03-29T07:48:16.714Z,18.57
2019-03-29T07:50:46.354Z,17.13
2019-03-29T07:53:15.974Z,19.87
2019-03-29T07:55:45.592Z,17.73
2019-03-29T07:58:15.198Z,19.87
2019-03-29T08:00:44.823Z,17.63
2019-03-29T08:03:14.441Z,16.87
2019-03-29T08:05:45.172Z,17.37
2019-03-29T08:08:23.887Z,19.27
2019-03-29T08:10:46.222Z,17.90
2019-03-29T08:13:16.270Z,14.87
2019-03-29T08:15:46.290Z,14.73
2019-03-29T08:18:15.903Z,19.17
2019-03-29T08:20:45.767Z,14.83
2019-03-29T08:23:15.399Z,13.97
2019-03-29T08:25:45.030Z,14.97
2019-03-29T08:28:14.654Z,14.03
2019-03-29T08:30:44.280Z,16.57
2019-03-29T08:33:13.886Z,15.67
2019-03-29T08:35:43.548Z,14.03
2019-03-29T08:38:13.174Z,15.53
2019-03-29T08:40:45.211Z,13.23
2019-03-29T08:43:14.141Z,13.13
2019-03-29T08:45:43.752Z,13.33
2019-03-29T08:48:13.430Z,14.37
2019-03-29T08:50:43.069Z,13.90
2019-03-29T08:53:12.694Z,12.73
2019-03-29T08:55:46.161Z,14.00
2019-03-29T08:58:13.948Z,13.07
2019-03-29T09:00:43.585Z,13.67
2019-03-29T09:03:13.407Z,12.10
2019-03-29T09:05:43.237Z,13.87
2019-03-29T09:08:12.871Z,11.73
2019-03-29T09:10:42.504Z,12.30
2019-03-29T09:13:12.116Z,12.37
2019-03-29T09:15:41.756Z,11.73
2019-03-29T09:18:11.488Z,13.03
2019-03-29T09:20:41.296Z,12.33
2019-03-29T09:23:10.914Z,11.03
2019-03-29T09:25:40.723Z,13.07
2019-03-29T09:28:10.470Z,14.67
2019-03-29T09:30:40.087Z,12.60
2019-03-29T09:33:09.687Z,11.10
2019-03-29T09:35:42.579Z,12.33
2019-03-29T09:38:10.658Z,11.00
2019-03-29T09:40:40.374Z,11.40
2019-03-29T09:43:10.224Z,9.73
2019-03-29T09:45:41.289Z,10.90
2019-03-29T09:48:11.035Z,9.83
2019-03-29T09:50:40.761Z,10.63
2019-03-29T09:53:10.370Z,9.80
2019-03-29T09:55:40.014Z,10.00
2019-03-29T09:58:09.643Z,9.07
2019-03-29T10:00:39.289Z,9.17
2019-03-29T10:03:08.900Z,9.20
2019-03-29T10:05:38.535Z,9.33
2019-03-29T10:08:08.105Z,7.53
2019-03-29T10:10:37.723Z,10.40
2019-03-29T10:13:07.377Z,7.53
2019-03-29T10:15:36.984Z,7.20
2019-03-29T10:18:06.591Z,6.73
2019-03-29T10:20:36.221Z,5.87
2019-03-29T10:23:05.841Z,6.80
2019-03-29T10:25:35.479Z,8.07
2019-03-29T10:28:05.288Z,8.07
2019-03-29T10:30:46.277Z,9.23
2019-03-29T10:33:14.493Z,6.93
2019-03-29T10:35:52.282Z,6.90
2019-03-29T10:38:18.145Z,7.10
2019-03-29T10:40:46.838Z,6.70
2019-03-29T10:43:16.639Z,5.63
2019-03-29T10:45:46.360Z,4.97
2019-03-29T10:48:16.032Z,4.10
2019-03-29T10:50:45.647Z,3.50
2019-03-29T10:53:15.299Z,3.37
2019-03-29T10:55:44.961Z,2.90
2019-03-29T10:58:14.667Z,2.60
2019-03-29T11:00:44.287Z,2.30
2019-03-29T11:03:13.901Z,2.10
2019-03-29T11:05:43.587Z,1.63
2019-03-29T11:08:13.201Z,2.00
2019-03-29T11:10:42.860Z,2.20
2019-03-29T11:13:14.204Z,1.90
2019-03-29T11:15:43.831Z,2.00
2019-03-29T11:18:13.547Z,2.90
2019-03-29T11:20:43.156Z,2.33
2019-03-29T11:23:12.751Z,2.20
2019-03-29T11:25:42.381Z,2.23
2019-03-29T11:28:12.085Z,1.67
2019-03-29T11:30:43.128Z,2.10
2019-03-29T11:33:13.167Z,1.80
2019-03-29T11:35:42.821Z,2.57
2019-03-29T11:38:12.449Z,2.40
2019-03-29T11:40:42.070Z,2.20
2019-03-29T11:43:25.749Z,3.00
2019-03-29T11:45:43.093Z,2.27
2019-03-29T11:48:12.703Z,1.93
2019-03-29T11:50:42.336Z,2.00
2019-03-29T11:53:12.012Z,2.20
2019-03-29T11:55:41.631Z,2.57
2019-03-29T11:58:11.247Z,2.17
2019-03-29T12:00:41.305Z,2.70
2019-03-29T12:03:10.918Z,2.60
2019-03-29T12:05:40.655Z,1.87
2019-03-29T12:08:10.307Z,2.03
2019-03-29T12:10:39.925Z,2.10
2019-03-29T12:13:10.285Z,2.20
2019-03-29T12:15:40.189Z,2.33
2019-03-29T12:18:09.808Z,2.43
2019-03-29T12:20:39.519Z,2.50
2019-03-29T12:23:09.226Z,2.30
2019-03-29T12:25:38.855Z,2.97
2019-03-29T12:28:08.645Z,2.70
2019-03-29T12:30:39.179Z,2.97
2019-03-29T12:33:08.807Z,3.10
2019-03-29T12:35:38.427Z,2.73
2019-03-29T12:38:08.070Z,3.00
2019-03-29T12:40:37.694Z,4.90
2019-03-29T12:43:07.312Z,23.47
2019-03-29T12:45:37.366Z,3.40
2019-03-29T12:48:07.203Z,3.80
2019-03-29T12:50:36.947Z,3.93
2019-03-29T12:53:06.647Z,3.00
2019-03-29T12:55:36.777Z,2.40
2019-03-29T12:58:06.504Z,2.87
2019-03-29T13:00:36.377Z,2.83
2019-03-29T13:03:06.093Z,2.50
2019-03-29T13:05:35.749Z,2.93
2019-03-29T13:08:05.393Z,3.07
2019-03-29T13:10:35.101Z,3.30
2019-03-29T13:13:04.742Z,3.37
2019-03-29T13:15:34.427Z,3.70
2019-03-29T13:18:04.086Z,3.27
2019-03-29T13:20:33.732Z,3.60
2019-03-29T13:23:03.438Z,3.47
2019-03-29T13:25:33.136Z,3.40
2019-03-29T13:28:02.794Z,3.50
2019-03-29T13:30:32.544Z,3.03
2019-03-29T13:33:02.204Z,3.00
2019-03-29T13:35:31.835Z,2.73
2019-03-29T13:38:01.449Z,3.00
2019-03-29T13:40:31.073Z,3.23
2019-03-29T13:43:00.682Z,3.40
2019-03-29T13:45:30.292Z,3.17
2019-03-29T13:47:59.964Z,4.07
2019-03-29T13:50:29.615Z,3.37
2019-03-29T13:52:59.265Z,9.57
2019-03-29T13:55:28.986Z,9.07
2019-03-29T13:57:58.633Z,4.13
2019-03-29T14:00:28.268Z,3.40
2019-03-29T14:02:57.957Z,3.17
2019-03-29T14:05:27.595Z,3.17
2019-03-29T14:07:57.231Z,3.27
2019-03-29T14:10:26.841Z,2.83
2019-03-29T14:12:56.473Z,3.00
2019-03-29T14:15:26.089Z,4.27
2019-03-29T14:17:55.693Z,42.10
2019-03-29T14:20:35.243Z,18.63
2019-03-29T14:23:04.895Z,4.10
2019-03-29T14:25:34.526Z,3.40
2019-03-29T14:28:04.610Z,5.87
2019-03-29T14:30:34.284Z,3.37
2019-03-29T14:33:03.890Z,7.80
2019-03-29T14:35:33.549Z,6.00
2019-03-29T14:38:03.160Z,3.63
2019-03-29T14:40:32.778Z,3.33
2019-03-29T14:43:02.476Z,6.90
2019-03-29T14:45:32.195Z,11.40
2019-03-29T14:48:01.849Z,8.97
2019-03-29T14:50:31.474Z,3.87
2019-03-29T14:53:01.099Z,3.37
2019-03-29T14:55:30.714Z,3.00
2019-03-29T14:58:00.324Z,3.20
2019-03-29T15:00:40.800Z,3.20
2019-03-29T15:03:10.453Z,3.87
2019-03-29T15:05:40.489Z,3.77
2019-03-29T15:08:10.303Z,3.60
2019-03-29T15:10:39.933Z,7.33
2019-03-29T15:13:09.563Z,12.57
2019-03-29T15:15:39.186Z,9.60
2019-03-29T15:18:08.814Z,7.20
2019-03-29T15:20:52.124Z,26.67
2019-03-29T15:23:09.779Z,5.73
2019-03-29T15:25:40.742Z,3.87
2019-03-29T15:28:10.694Z,3.30
2019-03-29T15:30:40.423Z,3.13
2019-03-29T15:33:10.122Z,3.50
2019-03-29T15:35:39.733Z,4.00
2019-03-29T15:38:09.370Z,4.07
2019-03-29T15:40:39.019Z,3.87
2019-03-29T15:43:08.636Z,3.90
2019-03-29T15:45:38.288Z,3.13
2019-03-29T15:48:07.930Z,3.90
2019-03-29T15:50:37.623Z,3.63
2019-03-29T15:53:07.418Z,3.07
2019-03-29T15:55:37.045Z,3.57
2019-03-29T15:58:06.691Z,3.53
2019-03-29T16:00:36.450Z,3.33
2019-03-29T16:03:06.100Z,4.47
2019-03-29T16:05:35.722Z,4.33
2019-03-29T16:08:05.446Z,3.47
2019-03-29T16:10:35.068Z,3.37
2019-03-29T16:13:05.140Z,4.43
2019-03-29T16:15:38.198Z,25.23
2019-03-29T16:18:06.172Z,13.13
2019-03-29T16:20:35.838Z,46.03
2019-03-29T16:23:05.454Z,6.43
2019-03-29T16:25:35.170Z,4.43
2019-03-29T16:28:04.824Z,3.73
2019-03-29T16:30:34.543Z,3.70
2019-03-29T16:33:04.260Z,11.60
2019-03-29T16:35:33.898Z,7.70
2019-03-29T16:38:03.525Z,5.33
2019-03-29T16:40:33.141Z,4.00
2019-03-29T16:43:02.762Z,4.20
2019-03-29T16:45:32.504Z,4.53
2019-03-29T16:48:02.162Z,3.87
2019-03-29T16:50:31.798Z,4.20
2019-03-29T16:53:01.411Z,4.07
2019-03-29T16:55:31.095Z,3.77
2019-03-29T16:58:00.734Z,3.67
2019-03-29T17:00:30.368Z,3.60
2019-03-29T17:02:59.990Z,3.83
2019-03-29T17:05:29.618Z,3.70
2019-03-29T17:07:59.233Z,5.27
2019-03-29T17:10:28.876Z,4.70
2019-03-29T17:12:58.473Z,4.30
2019-03-29T17:15:28.123Z,4.70
2019-03-29T17:17:57.827Z,5.57
2019-03-29T17:20:27.540Z,4.00
2019-03-29T17:22:57.200Z,3.90
2019-03-29T17:25:26.845Z,3.50
2019-03-29T17:27:56.491Z,3.90
2019-03-29T17:30:43.290Z,3.97
2019-03-29T17:33:13.010Z,3.80
2019-03-29T17:35:42.691Z,3.40
2019-03-29T17:38:12.353Z,3.60
2019-03-29T17:40:42.088Z,3.47
2019-03-29T17:43:11.742Z,3.53
2019-03-29T17:45:41.386Z,3.03
2019-03-29T17:48:11.129Z,3.60
2019-03-29T17:50:40.833Z,3.43
2019-03-29T17:53:10.440Z,3.17
2019-03-29T17:55:40.176Z,3.10
2019-03-29T17:58:09.815Z,3.13
2019-03-29T18:00:39.520Z,3.27
2019-03-29T18:03:09.214Z,3.93
2019-03-29T18:05:38.936Z,4.00
2019-03-29T18:08:08.570Z,3.30
2019-03-29T18:10:38.312Z,3.37
2019-03-29T18:13:13.449Z,3.53
2019-03-29T18:15:43.108Z,3.33
2019-03-29T18:18:13.204Z,3.70
2019-03-29T18:20:43.238Z,3.90
2019-03-29T18:23:12.923Z,4.00
2019-03-29T18:25:42.612Z,4.83
2019-03-29T18:28:12.302Z,7.10
2019-03-29T18:30:43.303Z,20.47
2019-03-29T18:33:12.975Z,4.80
2019-03-29T18:35:42.623Z,4.17
2019-03-29T18:38:12.377Z,4.17
2019-03-29T18:40:42.141Z,4.03
2019-03-29T18:43:11.853Z,4.97
2019-03-29T18:45:41.985Z,4.30
2019-03-29T18:48:11.737Z,4.27
2019-03-29T18:50:41.511Z,3.90
2019-03-29T18:53:11.407Z,4.20
2019-03-29T18:55:41.090Z,5.13
2019-03-29T18:58:10.926Z,4.70
2019-03-29T19:00:40.551Z,5.03
2019-03-29T19:03:11.965Z,5.30
2019-03-29T19:05:41.630Z,4.40
2019-03-29T19:08:11.248Z,4.67
2019-03-29T19:10:40.947Z,4.57
2019-03-29T19:13:10.593Z,5.97
2019-03-29T19:15:40.200Z,5.77
2019-03-29T19:18:09.843Z,5.07
2019-03-29T19:20:39.538Z,5.10
2019-03-29T19:23:09.180Z,5.30
2019-03-29T19:25:38.951Z,5.00
2019-03-29T19:28:08.578Z,5.23
2019-03-29T19:30:38.235Z,6.10
2019-03-29T19:33:07.875Z,14.80
2019-03-29T19:35:37.519Z,30.03
2019-03-29T19:38:07.200Z,11.57
2019-03-29T19:40:36.852Z,7.20
2019-03-29T19:43:06.494Z,5.43
2019-03-29T19:45:36.138Z,5.53
2019-03-29T19:48:05.759Z,5.57
2019-03-29T19:50:35.381Z,6.07
2019-03-29T19:53:05.004Z,5.40
2019-03-29T19:55:35.233Z,4.93
2019-03-29T19:58:04.975Z,5.83
2019-03-29T20:00:41.060Z,5.57
2019-03-29T20:03:10.869Z,7.43
2019-03-29T20:05:41.164Z,6.03
2019-03-29T20:08:10.815Z,5.63
2019-03-29T20:10:40.454Z,6.60
2019-03-29T20:13:10.176Z,5.20
2019-03-29T20:15:39.795Z,5.50
2019-03-29T20:18:09.427Z,6.53
2019-03-29T20:20:39.075Z,8.17
2019-03-29T20:23:08.766Z,6.43
2019-03-29T20:25:38.410Z,6.63
2019-03-29T20:28:07.258Z,10.60
2019-03-29T20:30:36.991Z,5.60
2019-03-29T20:33:06.623Z,7.20
2019-03-29T20:35:36.347Z,6.00
2019-03-29T20:38:05.992Z,7.60
2019-03-29T20:40:35.624Z,8.30
2019-03-29T20:43:05.295Z,7.13
2019-03-29T20:45:34.971Z,6.57
2019-03-29T20:48:04.669Z,6.97
2019-03-29T20:50:34.318Z,6.13
2019-03-29T20:53:04.043Z,6.93
2019-03-29T20:55:33.665Z,7.87
2019-03-29T20:58:03.318Z,6.80
2019-03-29T21:00:32.856Z,6.17
2019-03-29T21:03:02.635Z,6.43
2019-03-29T21:05:32.339Z,6.13
2019-03-29T21:08:02.023Z,6.40
2019-03-29T21:10:31.625Z,5.23
2019-03-29T21:13:01.249Z,5.93
2019-03-29T21:15:30.860Z,5.47
2019-03-29T21:18:00.559Z,6.57
2019-03-29T21:20:30.212Z,6.10
2019-03-29T21:22:59.829Z,6.10
2019-03-29T21:25:29.665Z,6.57
2019-03-29T21:27:59.316Z,5.80
2019-03-29T21:30:29.071Z,6.13
2019-03-29T21:32:58.684Z,7.43
2019-03-29T21:35:28.423Z,7.57
2019-03-29T21:37:58.040Z,6.83
2019-03-29T21:40:27.743Z,9.17
2019-03-29T21:42:57.394Z,6.17
2019-03-29T21:45:28.935Z,6.97
2019-03-29T21:48:08.823Z,6.60
2019-03-29T21:50:29.955Z,6.63
2019-03-29T21:52:59.702Z,6.90
2019-03-29T21:55:29.310Z,6.23
2019-03-29T21:57:58.937Z,6.20
2019-03-29T22:00:28.557Z,5.97
2019-03-29T22:02:58.121Z,6.93
2019-03-29T22:05:27.740Z,5.87
2019-03-29T22:07:57.441Z,6.30
2019-03-29T22:10:27.125Z,6.53
2019-03-29T22:12:56.768Z,6.13
2019-03-29T22:15:26.412Z,7.90
2019-03-29T22:17:56.177Z,6.57
2019-03-29T22:20:25.807Z,7.07
2019-03-29T22:22:55.359Z,6.30
2019-03-29T22:25:25.067Z,7.27
2019-03-29T22:27:54.784Z,6.70
2019-03-29T22:30:24.404Z,5.63
2019-03-29T22:32:54.035Z,7.03
2019-03-29T22:35:23.796Z,5.90
2019-03-29T22:37:53.503Z,6.53
2019-03-29T22:40:23.242Z,6.87
2019-03-29T22:42:52.870Z,6.43
2019-03-29T22:45:22.561Z,6.50
2019-03-29T22:47:52.264Z,6.30
2019-03-29T22:50:21.905Z,6.67
2019-03-29T22:52:54.432Z,5.67
2019-03-29T22:55:22.906Z,6.13
2019-03-29T22:57:52.533Z,5.97
2019-03-29T23:00:32.261Z,5.03
2019-03-29T23:03:01.927Z,6.40
2019-03-29T23:05:31.547Z,5.70
2019-03-29T23:08:01.211Z,7.20
2019-03-29T23:10:30.834Z,5.60
2019-03-29T23:13:00.450Z,6.10
2019-03-29T23:15:30.227Z,5.30
2019-03-29T23:17:59.844Z,6.00
2019-03-29T23:20:29.476Z,6.83
2019-03-29T23:22:59.107Z,5.70
2019-03-29T23:25:28.734Z,6.30
2019-03-29T23:27:58.365Z,5.93
2019-03-29T23:30:28.082Z,5.57
2019-03-29T23:32:57.684Z,6.43
2019-03-29T23:35:27.308Z,7.63
2019-03-29T23:37:56.912Z,6.00
2019-03-29T23:40:26.543Z,6.33
2019-03-29T23:42:56.211Z,6.77
2019-03-29T23:45:25.839Z,13.07
2019-03-29T23:47:55.512Z,6.00
2019-03-29T23:50:25.293Z,6.40
2019-03-29T23:52:54.912Z,6.10
2019-03-29T23:55:24.582Z,7.13
2019-03-29T23:57:54.319Z,5.87
